< Typhoon 199201 1992 Season Typhoon 199203 >
Typhoon 199202 (EKEKA)
General InformationTrack Information on Google MapsDetailed Wind InformationList of All Images || Disaster Info.ResourceGoogle EarthGE AnimationAtom FeedGeoJSON
Detalied Best Track (Time Zone = UTC)
Year Month Day Hour Lat. Long. Pressure (hPa) Wind (kt) Class Image Chart
1992 2 3 12 9.5 181.4 985 50 7 Image Chart
1992 2 3 18 9.5 179.8 990 45 3 Image Chart
1992 2 4 00 9.3 178.2 990 45 3 Image Chart
1992 2 4 06 9.3 176.5 990 45 3 Image Chart
1992 2 4 12 9.2 174.7 994 40 3 Image Chart
1992 2 4 18 9.5 173.1 1002 0 2 Image Chart
1992 2 5 00 10.0 171.0 1004 0 2 Image Chart
1992 2 5 06 10.5 169.5 1008 0 2 Image Chart
1992 2 5 12 10.6 167.6 1008 0 2 Image Chart
1992 2 5 18 10.9 166.7 1008 0 2 Image Chart
1992 2 6 00 11.0 165.5 1008 0 2 Image Chart
1992 2 6 06 10.8 164.4 1008 0 2 Image Chart
1992 2 6 12 10.5 163.5 1008 0 2 Image Chart
1992 2 6 18 10.0 162.5 1008 0 2 Image Chart
1992 2 7 00 9.5 161.5 1008 0 2 Image Chart
1992 2 7 06 9.3 159.8 1008 0 2 Image Chart
1992 2 7 12 8.8 157.7 1008 0 2 Image Chart
1992 2 7 18 8.4 155.9 1008 0 2 Image Chart
1992 2 8 00 7.6 154.0 1008 0 2 Image Chart
1992 2 8 06 6.8 152.2 1008 0 2 Image Chart
Japan Meteorological Agency Best Track Data | Correction Date : 2013-11-22
< Typhoon 199201 1992 Season Typhoon 199203 >

Help